sensor_id;sensor_type;location;lat;lon;timestamp;P1;durP1;ratioP1;P2;durP2;ratioP2
25637;SDS011;13496;51.040;13.680;2022-07-29T00:00:56;1.65;;;1.20;;
25637;SDS011;13496;51.040;13.680;2022-07-29T00:05:58;1.90;;;1.27;;
25637;SDS011;13496;51.040;13.680;2022-07-29T00:11:00;2.05;;;1.20;;
25637;SDS011;13496;51.040;13.680;2022-07-29T00:16:01;1.90;;;1.38;;
25637;SDS011;13496;51.040;13.680;2022-07-29T00:21:03;1.13;;;1.13;;
25637;SDS011;13496;51.040;13.680;2022-07-29T00:26:05;1.30;;;1.20;;
25637;SDS011;13496;51.040;13.680;2022-07-29T00:31:07;2.65;;;1.30;;
25637;SDS011;13496;51.040;13.680;2022-07-29T00:36:09;1.35;;;1.25;;
25637;SDS011;13496;51.040;13.680;2022-07-29T00:41:11;1.90;;;1.00;;
25637;SDS011;13496;51.040;13.680;2022-07-29T00:46:13;1.27;;;1.17;;
25637;SDS011;13496;51.040;13.680;2022-07-29T00:51:15;1.40;;;1.30;;
25637;SDS011;13496;51.040;13.680;2022-07-29T00:56:16;1.30;;;1.20;;
25637;SDS011;13496;51.040;13.680;2022-07-29T01:01:18;1.30;;;1.20;;
25637;SDS011;13496;51.040;13.680;2022-07-29T01:06:20;1.40;;;1.30;;
25637;SDS011;13496;51.040;13.680;2022-07-29T01:11:21;1.20;;;1.10;;
25637;SDS011;13496;51.040;13.680;2022-07-29T01:16:33;1.40;;;1.30;;
25637;SDS011;13496;51.040;13.680;2022-07-29T01:21:50;1.67;;;1.20;;
25637;SDS011;13496;51.040;13.680;2022-07-29T01:26:59;1.75;;;1.50;;
25637;SDS011;13496;51.040;13.680;2022-07-29T01:32:17;1.40;;;1.30;;
25637;SDS011;13496;51.040;13.680;2022-07-29T01:37:22;1.27;;;1.20;;
25637;SDS011;13496;51.040;13.680;2022-07-29T01:47:44;1.45;;;1.30;;
25637;SDS011;13496;51.040;13.680;2022-07-29T01:52:58;1.52;;;1.42;;
25637;SDS011;13496;51.040;13.680;2022-07-29T01:58:03;1.65;;;1.40;;
25637;SDS011;13496;51.040;13.680;2022-07-29T02:03:07;1.80;;;1.48;;
25637;SDS011;13496;51.040;13.680;2022-07-29T02:08:12;1.40;;;1.23;;
25637;SDS011;13496;51.040;13.680;2022-07-29T02:13:15;1.73;;;1.30;;
25637;SDS011;13496;51.040;13.680;2022-07-29T02:18:19;1.77;;;1.15;;
25637;SDS011;13496;51.040;13.680;2022-07-29T02:23:23;1.17;;;1.10;;
25637;SDS011;13496;51.040;13.680;2022-07-29T02:28:27;1.60;;;1.35;;
25637;SDS011;13496;51.040;13.680;2022-07-29T02:33:30;1.48;;;1.38;;
25637;SDS011;13496;51.040;13.680;2022-07-29T02:38:33;1.80;;;1.40;;
25637;SDS011;13496;51.040;13.680;2022-07-29T02:43:56;1.65;;;1.40;;
25637;SDS011;13496;51.040;13.680;2022-07-29T02:49:10;1.60;;;1.50;;
25637;SDS011;13496;51.040;13.680;2022-07-29T02:54:22;1.60;;;1.50;;
25637;SDS011;13496;51.040;13.680;2022-07-29T02:59:30;1.52;;;1.42;;
25637;SDS011;13496;51.040;13.680;2022-07-29T03:04:35;2.15;;;1.50;;
25637;SDS011;13496;51.040;13.680;2022-07-29T03:09:40;1.50;;;1.40;;
25637;SDS011;13496;51.040;13.680;2022-07-29T03:14:43;2.17;;;1.65;;
25637;SDS011;13496;51.040;13.680;2022-07-29T03:19:45;1.95;;;1.75;;
25637;SDS011;13496;51.040;13.680;2022-07-29T03:24:48;1.88;;;1.42;;
25637;SDS011;13496;51.040;13.680;2022-07-29T03:29:49;1.75;;;1.63;;
25637;SDS011;13496;51.040;13.680;2022-07-29T03:34:51;1.48;;;1.38;;
25637;SDS011;13496;51.040;13.680;2022-07-29T03:39:54;1.67;;;1.58;;
25637;SDS011;13496;51.040;13.680;2022-07-29T03:44:58;1.50;;;1.40;;
25637;SDS011;13496;51.040;13.680;2022-07-29T03:50:06;1.40;;;1.30;;
25637;SDS011;13496;51.040;13.680;2022-07-29T03:55:11;1.58;;;1.48;;
25637;SDS011;13496;51.040;13.680;2022-07-29T04:00:13;1.60;;;1.50;;
25637;SDS011;13496;51.040;13.680;2022-07-29T04:05:17;1.70;;;1.60;;
25637;SDS011;13496;51.040;13.680;2022-07-29T04:10:19;1.83;;;1.55;;
25637;SDS011;13496;51.040;13.680;2022-07-29T04:15:20;1.55;;;1.45;;
25637;SDS011;13496;51.040;13.680;2022-07-29T04:20:22;1.90;;;1.80;;
25637;SDS011;13496;51.040;13.680;2022-07-29T04:25:24;2.10;;;1.90;;
25637;SDS011;13496;51.040;13.680;2022-07-29T04:30:26;1.67;;;1.58;;
25637;SDS011;13496;51.040;13.680;2022-07-29T04:35:28;2.00;;;1.80;;
25637;SDS011;13496;51.040;13.680;2022-07-29T04:40:31;2.20;;;2.00;;
25637;SDS011;13496;51.040;13.680;2022-07-29T04:45:34;2.97;;;2.20;;
25637;SDS011;13496;51.040;13.680;2022-07-29T04:50:39;2.22;;;2.03;;
25637;SDS011;13496;51.040;13.680;2022-07-29T04:55:41;2.13;;;1.90;;
25637;SDS011;13496;51.040;13.680;2022-07-29T05:00:43;2.00;;;1.88;;
25637;SDS011;13496;51.040;13.680;2022-07-29T05:05:44;2.10;;;1.95;;
25637;SDS011;13496;51.040;13.680;2022-07-29T05:10:46;2.28;;;2.08;;
25637;SDS011;13496;51.040;13.680;2022-07-29T05:15:48;2.55;;;2.35;;
25637;SDS011;13496;51.040;13.680;2022-07-29T05:20:50;4.03;;;3.00;;
25637;SDS011;13496;51.040;13.680;2022-07-29T05:25:52;2.92;;;2.65;;
25637;SDS011;13496;51.040;13.680;2022-07-29T05:30:53;3.30;;;3.00;;
25637;SDS011;13496;51.040;13.680;2022-07-29T05:35:55;2.92;;;2.45;;
25637;SDS011;13496;51.040;13.680;2022-07-29T05:40:57;4.20;;;3.80;;
25637;SDS011;13496;51.040;13.680;2022-07-29T05:46:00;6.90;;;6.05;;
25637;SDS011;13496;51.040;13.680;2022-07-29T05:51:01;8.55;;;6.28;;
25637;SDS011;13496;51.040;13.680;2022-07-29T05:56:03;7.13;;;6.43;;
25637;SDS011;13496;51.040;13.680;2022-07-29T06:01:08;8.13;;;7.28;;
25637;SDS011;13496;51.040;13.680;2022-07-29T06:06:10;11.65;;;9.40;;
25637;SDS011;13496;51.040;13.680;2022-07-29T06:11:12;8.15;;;7.35;;
25637;SDS011;13496;51.040;13.680;2022-07-29T06:16:14;6.00;;;5.35;;
25637;SDS011;13496;51.040;13.680;2022-07-29T06:21:16;6.38;;;5.50;;
25637;SDS011;13496;51.040;13.680;2022-07-29T06:26:18;8.45;;;7.65;;
25637;SDS011;13496;51.040;13.680;2022-07-29T06:31:19;7.38;;;6.68;;
25637;SDS011;13496;51.040;13.680;2022-07-29T06:36:21;16.52;;;13.82;;
25637;SDS011;13496;51.040;13.680;2022-07-29T06:41:23;8.77;;;7.57;;
25637;SDS011;13496;51.040;13.680;2022-07-29T06:46:25;8.20;;;7.15;;
25637;SDS011;13496;51.040;13.680;2022-07-29T06:51:26;7.82;;;6.95;;
25637;SDS011;13496;51.040;13.680;2022-07-29T06:56:32;9.95;;;8.43;;
25637;SDS011;13496;51.040;13.680;2022-07-29T07:01:37;8.95;;;8.13;;
25637;SDS011;13496;51.040;13.680;2022-07-29T07:06:39;10.57;;;8.48;;
25637;SDS011;13496;51.040;13.680;2022-07-29T07:11:41;13.23;;;8.85;;
25637;SDS011;13496;51.040;13.680;2022-07-29T07:16:43;13.52;;;9.77;;
25637;SDS011;13496;51.040;13.680;2022-07-29T07:21:44;9.30;;;8.38;;
25637;SDS011;13496;51.040;13.680;2022-07-29T07:26:46;8.45;;;7.65;;
25637;SDS011;13496;51.040;13.680;2022-07-29T07:31:48;8.98;;;8.10;;
25637;SDS011;13496;51.040;13.680;2022-07-29T07:36:49;9.00;;;8.15;;
25637;SDS011;13496;51.040;13.680;2022-07-29T07:41:51;8.82;;;7.95;;
25637;SDS011;13496;51.040;13.680;2022-07-29T07:46:53;9.52;;;8.52;;
25637;SDS011;13496;51.040;13.680;2022-07-29T07:51:55;9.63;;;8.65;;
25637;SDS011;13496;51.040;13.680;2022-07-29T07:56:57;12.10;;;10.50;;
25637;SDS011;13496;51.040;13.680;2022-07-29T08:01:59;9.32;;;8.32;;
25637;SDS011;13496;51.040;13.680;2022-07-29T08:07:02;9.05;;;8.15;;
25637;SDS011;13496;51.040;13.680;2022-07-29T08:12:04;10.07;;;8.73;;
25637;SDS011;13496;51.040;13.680;2022-07-29T08:17:06;9.50;;;8.60;;
25637;SDS011;13496;51.040;13.680;2022-07-29T08:22:08;9.52;;;8.52;;
25637;SDS011;13496;51.040;13.680;2022-07-29T08:27:11;9.52;;;8.63;;
25637;SDS011;13496;51.040;13.680;2022-07-29T08:32:13;9.77;;;8.77;;
25637;SDS011;13496;51.040;13.680;2022-07-29T08:37:15;11.13;;;8.98;;
25637;SDS011;13496;51.040;13.680;2022-07-29T08:42:16;11.73;;;8.80;;
25637;SDS011;13496;51.040;13.680;2022-07-29T08:47:18;10.38;;;8.90;;
25637;SDS011;13496;51.040;13.680;2022-07-29T08:52:20;10.70;;;9.70;;
25637;SDS011;13496;51.040;13.680;2022-07-29T08:57:26;10.55;;;9.55;;
25637;SDS011;13496;51.040;13.680;2022-07-29T09:02:29;10.20;;;9.20;;
25637;SDS011;13496;51.040;13.680;2022-07-29T09:07:36;10.52;;;9.43;;
25637;SDS011;13496;51.040;13.680;2022-07-29T09:12:40;9.65;;;8.65;;
25637;SDS011;13496;51.040;13.680;2022-07-29T09:17:42;11.45;;;10.02;;
25637;SDS011;13496;51.040;13.680;2022-07-29T09:22:46;10.00;;;8.98;;
25637;SDS011;13496;51.040;13.680;2022-07-29T09:27:52;10.50;;;9.40;;
25637;SDS011;13496;51.040;13.680;2022-07-29T09:32:54;11.40;;;9.52;;
25637;SDS011;13496;51.040;13.680;2022-07-29T09:37:57;10.00;;;9.00;;
25637;SDS011;13496;51.040;13.680;2022-07-29T09:42:59;9.63;;;8.73;;
25637;SDS011;13496;51.040;13.680;2022-07-29T09:48:46;9.32;;;8.43;;
25637;SDS011;13496;51.040;13.680;2022-07-29T09:53:39;10.52;;;9.43;;
25637;SDS011;13496;51.040;13.680;2022-07-29T09:58:42;10.45;;;9.48;;
25637;SDS011;13496;51.040;13.680;2022-07-29T10:03:53;10.60;;;8.55;;
25637;SDS011;13496;51.040;13.680;2022-07-29T10:08:54;9.90;;;8.90;;
25637;SDS011;13496;51.040;13.680;2022-07-29T10:14:08;10.98;;;9.32;;
25637;SDS011;13496;51.040;13.680;2022-07-29T10:19:10;10.77;;;9.68;;
25637;SDS011;13496;51.040;13.680;2022-07-29T10:24:11;10.48;;;9.45;;
25637;SDS011;13496;51.040;13.680;2022-07-29T10:29:13;10.63;;;9.35;;
25637;SDS011;13496;51.040;13.680;2022-07-29T10:44:30;11.48;;;9.90;;
25637;SDS011;13496;51.040;13.680;2022-07-29T10:49:34;11.55;;;8.98;;
25637;SDS011;13496;51.040;13.680;2022-07-29T10:59:38;10.00;;;8.20;;
25637;SDS011;13496;51.040;13.680;2022-07-29T11:04:58;9.93;;;8.40;;
25637;SDS011;13496;51.040;13.680;2022-07-29T11:15:15;8.57;;;7.78;;
25637;SDS011;13496;51.040;13.680;2022-07-29T11:25:54;7.97;;;7.18;;
25637;SDS011;13496;51.040;13.680;2022-07-29T11:31:16;7.78;;;6.97;;
25637;SDS011;13496;51.040;13.680;2022-07-29T11:36:32;6.97;;;6.22;;
25637;SDS011;13496;51.040;13.680;2022-07-29T11:41:34;7.22;;;6.47;;
25637;SDS011;13496;51.040;13.680;2022-07-29T11:46:45;7.15;;;6.30;;
25637;SDS011;13496;51.040;13.680;2022-07-29T11:51:50;5.95;;;5.32;;
25637;SDS011;13496;51.040;13.680;2022-07-29T11:56:53;6.60;;;5.65;;
25637;SDS011;13496;51.040;13.680;2022-07-29T12:01:56;6.10;;;5.60;;
25637;SDS011;13496;51.040;13.680;2022-07-29T12:06:59;5.72;;;5.22;;
25637;SDS011;13496;51.040;13.680;2022-07-29T12:12:01;6.00;;;5.40;;
25637;SDS011;13496;51.040;13.680;2022-07-29T12:17:03;6.32;;;5.10;;
25637;SDS011;13496;51.040;13.680;2022-07-29T12:22:05;5.40;;;4.90;;
25637;SDS011;13496;51.040;13.680;2022-07-29T12:27:07;6.43;;;5.82;;
25637;SDS011;13496;51.040;13.680;2022-07-29T12:32:09;5.10;;;4.43;;
25637;SDS011;13496;51.040;13.680;2022-07-29T12:37:11;5.45;;;4.70;;
25637;SDS011;13496;51.040;13.680;2022-07-29T12:42:13;4.60;;;4.20;;
25637;SDS011;13496;51.040;13.680;2022-07-29T12:47:16;4.55;;;4.15;;
25637;SDS011;13496;51.040;13.680;2022-07-29T12:57:31;4.80;;;4.03;;
25637;SDS011;13496;51.040;13.680;2022-07-29T13:02:33;3.95;;;3.65;;
25637;SDS011;13496;51.040;13.680;2022-07-29T13:07:36;5.35;;;3.45;;
25637;SDS011;13496;51.040;13.680;2022-07-29T13:12:38;6.22;;;3.92;;
25637;SDS011;13496;51.040;13.680;2022-07-29T13:17:41;4.25;;;3.92;;
25637;SDS011;13496;51.040;13.680;2022-07-29T13:22:47;4.45;;;4.13;;
25637;SDS011;13496;51.040;13.680;2022-07-29T13:27:49;4.13;;;3.72;;
25637;SDS011;13496;51.040;13.680;2022-07-29T13:32:51;3.95;;;3.65;;
25637;SDS011;13496;51.040;13.680;2022-07-29T13:37:53;4.05;;;3.75;;
25637;SDS011;13496;51.040;13.680;2022-07-29T13:42:55;4.43;;;3.95;;
25637;SDS011;13496;51.040;13.680;2022-07-29T13:47:57;3.90;;;3.40;;
25637;SDS011;13496;51.040;13.680;2022-07-29T13:52:59;3.60;;;3.30;;
25637;SDS011;13496;51.040;13.680;2022-07-29T13:58:00;3.22;;;3.00;;
25637;SDS011;13496;51.040;13.680;2022-07-29T14:03:02;3.60;;;3.30;;
25637;SDS011;13496;51.040;13.680;2022-07-29T14:08:04;3.72;;;3.42;;
25637;SDS011;13496;51.040;13.680;2022-07-29T14:13:06;3.83;;;3.53;;
25637;SDS011;13496;51.040;13.680;2022-07-29T14:18:07;6.05;;;3.53;;
25637;SDS011;13496;51.040;13.680;2022-07-29T14:23:09;4.28;;;3.40;;
25637;SDS011;13496;51.040;13.680;2022-07-29T14:28:11;3.58;;;3.28;;
25637;SDS011;13496;51.040;13.680;2022-07-29T14:33:13;3.75;;;3.30;;
25637;SDS011;13496;51.040;13.680;2022-07-29T14:38:15;3.47;;;3.17;;
25637;SDS011;13496;51.040;13.680;2022-07-29T14:43:16;3.58;;;2.83;;
25637;SDS011;13496;51.040;13.680;2022-07-29T14:48:18;4.10;;;3.00;;
25637;SDS011;13496;51.040;13.680;2022-07-29T14:53:20;3.38;;;3.08;;
25637;SDS011;13496;51.040;13.680;2022-07-29T14:58:21;3.03;;;2.83;;
25637;SDS011;13496;51.040;13.680;2022-07-29T15:03:23;3.50;;;3.20;;
25637;SDS011;13496;51.040;13.680;2022-07-29T15:08:25;3.55;;;2.90;;
25637;SDS011;13496;51.040;13.680;2022-07-29T15:13:29;3.20;;;2.92;;
25637;SDS011;13496;51.040;13.680;2022-07-29T15:18:31;3.05;;;2.78;;
25637;SDS011;13496;51.040;13.680;2022-07-29T15:23:33;3.70;;;3.40;;
25637;SDS011;13496;51.040;13.680;2022-07-29T15:28:37;2.90;;;2.70;;
25637;SDS011;13496;51.040;13.680;2022-07-29T15:33:39;3.45;;;3.15;;
25637;SDS011;13496;51.040;13.680;2022-07-29T15:38:41;3.35;;;3.08;;
25637;SDS011;13496;51.040;13.680;2022-07-29T15:43:43;3.20;;;2.90;;
25637;SDS011;13496;51.040;13.680;2022-07-29T15:48:46;3.17;;;2.80;;
25637;SDS011;13496;51.040;13.680;2022-07-29T15:53:48;3.47;;;3.17;;
25637;SDS011;13496;51.040;13.680;2022-07-29T15:58:49;3.17;;;2.97;;
25637;SDS011;13496;51.040;13.680;2022-07-29T16:03:52;3.15;;;2.95;;
25637;SDS011;13496;51.040;13.680;2022-07-29T16:08:54;3.20;;;2.90;;
25637;SDS011;13496;51.040;13.680;2022-07-29T16:13:56;3.45;;;3.08;;
25637;SDS011;13496;51.040;13.680;2022-07-29T16:18:57;3.47;;;3.28;;
25637;SDS011;13496;51.040;13.680;2022-07-29T16:23:59;2.97;;;2.75;;
25637;SDS011;13496;51.040;13.680;2022-07-29T16:29:01;3.22;;;3.00;;
25637;SDS011;13496;51.040;13.680;2022-07-29T16:34:04;3.47;;;3.20;;
25637;SDS011;13496;51.040;13.680;2022-07-29T16:39:06;3.47;;;3.17;;
25637;SDS011;13496;51.040;13.680;2022-07-29T16:44:08;3.78;;;3.50;;
25637;SDS011;13496;51.040;13.680;2022-07-29T16:49:10;3.80;;;3.50;;
25637;SDS011;13496;51.040;13.680;2022-07-29T16:54:12;4.10;;;3.80;;
25637;SDS011;13496;51.040;13.680;2022-07-29T16:59:13;4.20;;;3.90;;
25637;SDS011;13496;51.040;13.680;2022-07-29T17:04:15;4.40;;;4.00;;
25637;SDS011;13496;51.040;13.680;2022-07-29T17:09:17;4.57;;;4.15;;
25637;SDS011;13496;51.040;13.680;2022-07-29T17:14:19;4.28;;;3.97;;
25637;SDS011;13496;51.040;13.680;2022-07-29T17:19:21;4.70;;;4.30;;
25637;SDS011;13496;51.040;13.680;2022-07-29T17:24:23;5.20;;;4.70;;
25637;SDS011;13496;51.040;13.680;2022-07-29T17:29:24;4.38;;;4.07;;
25637;SDS011;13496;51.040;13.680;2022-07-29T17:34:26;5.40;;;4.90;;
25637;SDS011;13496;51.040;13.680;2022-07-29T17:39:28;5.57;;;4.75;;
25637;SDS011;13496;51.040;13.680;2022-07-29T17:44:29;5.00;;;4.60;;
25637;SDS011;13496;51.040;13.680;2022-07-29T17:49:31;5.15;;;4.65;;
25637;SDS011;13496;51.040;13.680;2022-07-29T17:54:33;11.77;;;5.57;;
25637;SDS011;13496;51.040;13.680;2022-07-29T17:59:35;8.27;;;5.10;;
25637;SDS011;13496;51.040;13.680;2022-07-29T18:04:37;5.07;;;4.32;;
25637;SDS011;13496;51.040;13.680;2022-07-29T18:09:38;4.97;;;4.00;;
25637;SDS011;13496;51.040;13.680;2022-07-29T18:14:40;4.72;;;3.40;;
25637;SDS011;13496;51.040;13.680;2022-07-29T18:19:42;6.32;;;4.07;;
25637;SDS011;13496;51.040;13.680;2022-07-29T18:24:44;5.82;;;3.83;;
25637;SDS011;13496;51.040;13.680;2022-07-29T18:29:45;8.80;;;4.80;;
25637;SDS011;13496;51.040;13.680;2022-07-29T18:34:50;6.18;;;4.38;;
25637;SDS011;13496;51.040;13.680;2022-07-29T18:39:52;5.85;;;4.80;;
25637;SDS011;13496;51.040;13.680;2022-07-29T18:44:54;6.25;;;4.90;;
25637;SDS011;13496;51.040;13.680;2022-07-29T18:49:55;9.93;;;4.78;;
25637;SDS011;13496;51.040;13.680;2022-07-29T18:54:58;7.03;;;4.72;;
25637;SDS011;13496;51.040;13.680;2022-07-29T19:00:00;6.28;;;4.40;;
25637;SDS011;13496;51.040;13.680;2022-07-29T19:05:02;12.02;;;5.38;;
25637;SDS011;13496;51.040;13.680;2022-07-29T19:10:05;10.82;;;5.28;;
25637;SDS011;13496;51.040;13.680;2022-07-29T19:15:07;10.18;;;5.65;;
25637;SDS011;13496;51.040;13.680;2022-07-29T19:20:10;10.15;;;5.40;;
25637;SDS011;13496;51.040;13.680;2022-07-29T19:25:12;6.38;;;4.65;;
25637;SDS011;13496;51.040;13.680;2022-07-29T19:30:14;6.40;;;4.63;;
25637;SDS011;13496;51.040;13.680;2022-07-29T19:35:16;8.02;;;4.40;;
25637;SDS011;13496;51.040;13.680;2022-07-29T19:40:33;9.32;;;4.28;;
25637;SDS011;13496;51.040;13.680;2022-07-29T19:45:34;5.90;;;4.65;;
25637;SDS011;13496;51.040;13.680;2022-07-29T19:50:36;6.65;;;5.05;;
25637;SDS011;13496;51.040;13.680;2022-07-29T19:55:38;15.98;;;4.57;;
25637;SDS011;13496;51.040;13.680;2022-07-29T20:00:40;6.03;;;4.05;;
25637;SDS011;13496;51.040;13.680;2022-07-29T20:05:42;10.30;;;4.82;;
25637;SDS011;13496;51.040;13.680;2022-07-29T20:10:44;11.43;;;5.30;;
25637;SDS011;13496;51.040;13.680;2022-07-29T20:15:45;6.80;;;5.25;;
25637;SDS011;13496;51.040;13.680;2022-07-29T20:20:47;8.80;;;6.25;;
25637;SDS011;13496;51.040;13.680;2022-07-29T20:25:49;5.43;;;4.93;;
25637;SDS011;13496;51.040;13.680;2022-07-29T20:30:51;7.97;;;5.13;;
25637;SDS011;13496;51.040;13.680;2022-07-29T20:35:53;5.47;;;4.97;;
25637;SDS011;13496;51.040;13.680;2022-07-29T20:40:56;7.57;;;4.68;;
25637;SDS011;13496;51.040;13.680;2022-07-29T20:45:59;6.45;;;4.57;;
25637;SDS011;13496;51.040;13.680;2022-07-29T20:51:00;5.35;;;4.30;;
25637;SDS011;13496;51.040;13.680;2022-07-29T20:56:02;8.80;;;4.38;;
25637;SDS011;13496;51.040;13.680;2022-07-29T21:01:04;8.57;;;4.15;;
25637;SDS011;13496;51.040;13.680;2022-07-29T21:06:07;10.02;;;4.43;;
25637;SDS011;13496;51.040;13.680;2022-07-29T21:11:09;6.80;;;5.60;;
25637;SDS011;13496;51.040;13.680;2022-07-29T21:16:11;5.88;;;4.93;;
25637;SDS011;13496;51.040;13.680;2022-07-29T21:21:14;5.13;;;4.70;;
25637;SDS011;13496;51.040;13.680;2022-07-29T21:26:16;8.75;;;4.18;;
25637;SDS011;13496;51.040;13.680;2022-07-29T21:31:18;5.43;;;4.47;;
25637;SDS011;13496;51.040;13.680;2022-07-29T21:36:19;5.05;;;4.40;;
25637;SDS011;13496;51.040;13.680;2022-07-29T21:41:21;8.07;;;4.72;;
25637;SDS011;13496;51.040;13.680;2022-07-29T21:46:23;4.88;;;4.38;;
25637;SDS011;13496;51.040;13.680;2022-07-29T21:51:24;5.95;;;4.60;;
25637;SDS011;13496;51.040;13.680;2022-07-29T21:56:27;5.97;;;4.70;;
25637;SDS011;13496;51.040;13.680;2022-07-29T22:01:29;7.30;;;5.18;;
25637;SDS011;13496;51.040;13.680;2022-07-29T22:06:31;6.05;;;4.25;;
25637;SDS011;13496;51.040;13.680;2022-07-29T22:11:34;8.75;;;4.47;;
25637;SDS011;13496;51.040;13.680;2022-07-29T22:16:37;7.97;;;4.60;;
25637;SDS011;13496;51.040;13.680;2022-07-29T22:21:38;8.27;;;5.00;;
25637;SDS011;13496;51.040;13.680;2022-07-29T22:26:41;4.88;;;4.43;;
25637;SDS011;13496;51.040;13.680;2022-07-29T22:31:43;6.50;;;4.47;;
25637;SDS011;13496;51.040;13.680;2022-07-29T22:36:45;4.82;;;4.28;;
25637;SDS011;13496;51.040;13.680;2022-07-29T22:41:47;5.60;;;4.57;;
25637;SDS011;13496;51.040;13.680;2022-07-29T22:46:48;7.80;;;4.57;;
25637;SDS011;13496;51.040;13.680;2022-07-29T22:51:50;9.75;;;5.15;;
25637;SDS011;13496;51.040;13.680;2022-07-29T22:56:52;6.20;;;5.15;;
25637;SDS011;13496;51.040;13.680;2022-07-29T23:01:53;6.43;;;5.53;;
25637;SDS011;13496;51.040;13.680;2022-07-29T23:06:55;6.70;;;4.90;;
25637;SDS011;13496;51.040;13.680;2022-07-29T23:11:57;7.45;;;5.07;;
25637;SDS011;13496;51.040;13.680;2022-07-29T23:16:58;6.65;;;4.72;;
25637;SDS011;13496;51.040;13.680;2022-07-29T23:22:00;9.35;;;5.72;;
25637;SDS011;13496;51.040;13.680;2022-07-29T23:27:02;8.27;;;6.50;;
25637;SDS011;13496;51.040;13.680;2022-07-29T23:32:04;8.63;;;7.15;;
25637;SDS011;13496;51.040;13.680;2022-07-29T23:37:05;8.40;;;7.45;;
25637;SDS011;13496;51.040;13.680;2022-07-29T23:42:07;11.35;;;7.45;;
25637;SDS011;13496;51.040;13.680;2022-07-29T23:47:09;6.95;;;6.20;;
25637;SDS011;13496;51.040;13.680;2022-07-29T23:52:10;6.85;;;5.53;;
25637;SDS011;13496;51.040;13.680;2022-07-29T23:57:12;5.65;;;5.15;;
